Nearby METAR Reports

KLWM - Lawrence,MA, USA
Distance from station: NE 12mi, 19km
Updated: Mon, 22-Apr-2019 3:54am EDT
Clear
Clear
 Wind from calm
Wind: Calm
Temperature: 54°F , 12°C
Dew Point: 52°F , 11°C
Humidity: 94%
Barometer: 30.11 inHg , 1019.6 hPa
Clouds: Clear
Visibility: 10 miles , 16 km
2019/04/22 07:54 KLWM 220754Z AUTO 00000KT 10SM CLR 12/11 A3011 RMK AO2 SLP194 T01170106
KBED - Bedford,MA, USA
Distance from station: SSE 12mi, 19km
Updated: Mon, 22-Apr-2019 4:27am EDT
Fog, Mostly cloudy
Fog, Mostly cloudy
 Wind from NNW
Wind: NNW 5 mph , 7 km/h
Temperature: 50°F , 10°C
Wind Chill: 48°F , 9°C
Dew Point: 48°F , 9°C
Humidity: 94%
Barometer: 30.08 inHg , 1018.6 hPa
Summary: Fog
Clouds: Mostly Cloudy
Visibility: 1/4 mile , 0.4 km
Cloud details: Partly Cloudy 200 ft
Mostly Cloudy 3000 ft
2019/04/22 08:27 KBED 220827Z AUTO 33004KT 1/4SM R11/1800VP6000FT FG SCT002 BKN030 10/09 A3008 RMK AO2 T01000089

Metar display script from Saratoga-Weather.org